Marmeleiro, Brazil
Current Conditions -  °F | °C
As of 8:00 PM on Tuesday 25 Nov 2014 (Local Time) from SBCH Reporting Station
Broken Clouds Broken Clouds  
Wind Chill: 70°   Ceiling: 10000
Heat Index: 70°   Visibility: 6mi
Dew Point: 68°   Wind: 8mph
Humidity: 94%   Direction: 140°SE
Pressure: 29.77"   Gusts: NA
Location:  26.15°S, 53.03°W
Report Text: SBCH 252200Z 14007KT 9999 FEW007 SCT035 BKN100 21/20 Q1008
Loading
Personal Weather Stations






























Interactive Weather Map New forecast layout! Learn more

10-Day Weather Forecast

Advertisements
Track Severe Weather on mobile